createdAt,value
2022-10-25T00:01:31.591Z,10.07
2022-10-25T00:03:33.258Z,10.93
2022-10-25T00:05:35.542Z,9.95
2022-10-25T00:07:37.201Z,9.85
2022-10-25T00:09:39.045Z,10.73
2022-10-25T00:11:40.669Z,10.05
2022-10-25T00:13:42.270Z,9.88
2022-10-25T00:15:44.026Z,9.73
2022-10-25T00:17:45.803Z,9.18
2022-10-25T00:19:47.681Z,10.95
2022-10-25T00:21:49.362Z,9.80
2022-10-25T00:23:52.042Z,9.32
2022-10-25T00:26:01.852Z,10.30
2022-10-25T00:28:03.528Z,9.27
2022-10-25T00:30:07.058Z,10.48
2022-10-25T00:32:08.760Z,9.43
2022-10-25T00:34:10.423Z,9.73
2022-10-25T00:36:20.526Z,10.45
2022-10-25T00:38:22.190Z,9.35
2022-10-25T00:40:23.859Z,10.95
2022-10-25T00:42:27.401Z,9.80
2022-10-25T00:44:40.983Z,10.55
2022-10-25T00:46:43.885Z,9.45
2022-10-25T00:49:01.714Z,10.90
2022-10-25T00:51:04.183Z,10.35
2022-10-25T00:53:10.257Z,11.60
2022-10-25T00:55:12.833Z,10.55
2022-10-25T00:57:41.787Z,10.52
2022-10-25T00:59:44.756Z,10.57
2022-10-25T01:01:46.565Z,9.93
2022-10-25T01:03:49.336Z,10.13
2022-10-25T01:05:51.788Z,10.30
2022-10-25T01:07:53.418Z,11.38
2022-10-25T01:09:56.126Z,10.00
2022-10-25T01:11:57.932Z,9.85
2022-10-25T01:13:59.542Z,10.20
2022-10-25T01:16:15.687Z,9.73
2022-10-25T01:18:22.634Z,10.68
2022-10-25T01:20:56.582Z,9.60
2022-10-25T01:23:28.372Z,9.88
2022-10-25T01:25:54.661Z,10.02
2022-10-25T01:28:05.496Z,9.98
2022-10-25T01:30:25.392Z,9.65
2022-10-25T01:32:39.203Z,9.68
2022-10-25T01:34:53.451Z,10.40
2022-10-25T01:39:23.654Z,10.45
2022-10-25T01:41:32.775Z,10.32
2022-10-25T01:43:42.421Z,9.90
2022-10-25T01:45:52.789Z,10.35
2022-10-25T01:48:03.760Z,10.20
2022-10-25T01:50:08.788Z,8.85
2022-10-25T01:52:10.434Z,9.75
2022-10-25T01:54:25.045Z,10.48
2022-10-25T01:56:40.755Z,10.07
2022-10-25T01:59:00.865Z,10.75
2022-10-25T02:01:25.759Z,10.23
2022-10-25T02:03:43.205Z,9.40
2022-10-25T02:05:47.798Z,9.65
2022-10-25T02:08:05.144Z,9.20
2022-10-25T02:10:17.888Z,10.35
2022-10-25T02:12:25.611Z,10.00
2022-10-25T02:14:38.732Z,9.25
2022-10-25T02:16:45.217Z,10.13
2022-10-25T02:18:49.606Z,9.75
2022-10-25T02:20:52.558Z,9.25
2022-10-25T02:22:55.051Z,9.90
2022-10-25T02:24:57.917Z,10.40
2022-10-25T02:27:00.497Z,9.67
2022-10-25T02:29:03.959Z,9.18
2022-10-25T02:31:17.729Z,9.65
2022-10-25T02:33:19.312Z,9.38
2022-10-25T02:35:21.025Z,9.18
2022-10-25T02:37:22.739Z,9.20
2022-10-25T02:39:29.179Z,9.50
2022-10-25T02:41:33.925Z,9.07
2022-10-25T02:43:35.658Z,9.35
2022-10-25T02:45:37.246Z,9.13
2022-10-25T02:47:38.915Z,9.30
2022-10-25T02:49:40.485Z,8.95
2022-10-25T02:51:42.084Z,8.85
2022-10-25T02:53:44.150Z,10.30
2022-10-25T02:55:45.841Z,8.68
2022-10-25T02:57:47.434Z,9.05
2022-10-25T02:59:49.528Z,10.73
2022-10-25T03:01:51.188Z,19.23
2022-10-25T03:03:53.021Z,14.15
2022-10-25T03:05:54.952Z,9.45
2022-10-25T03:07:56.529Z,10.18
2022-10-25T03:09:58.176Z,10.55
2022-10-25T03:11:59.840Z,9.93
2022-10-25T03:14:01.405Z,10.35
2022-10-25T03:16:03.586Z,10.90
2022-10-25T03:18:05.304Z,9.38
2022-10-25T03:20:07.668Z,9.13
2022-10-25T03:22:09.389Z,10.15
2022-10-25T03:24:11.000Z,10.65
2022-10-25T03:26:12.625Z,10.43
2022-10-25T03:28:14.468Z,9.88
2022-10-25T03:30:16.560Z,10.15
2022-10-25T03:32:18.144Z,10.57
2022-10-25T03:34:19.908Z,12.27
2022-10-25T03:36:21.529Z,11.77
2022-10-25T03:38:23.364Z,11.20
2022-10-25T03:40:25.035Z,10.48
2022-10-25T03:42:26.849Z,10.48
2022-10-25T03:44:28.508Z,9.90
2022-10-25T03:46:30.144Z,9.90
2022-10-25T03:48:31.722Z,9.55
2022-10-25T03:50:33.414Z,11.10
2022-10-25T03:52:35.525Z,10.18
2022-10-25T03:54:37.208Z,9.63
2022-10-25T03:56:38.804Z,10.43
2022-10-25T03:58:40.513Z,9.68
2022-10-25T04:00:42.251Z,10.27
2022-10-25T04:02:43.864Z,10.23
2022-10-25T04:04:45.484Z,10.30
2022-10-25T04:06:47.092Z,10.73
2022-10-25T04:08:48.722Z,11.15
2022-10-25T04:10:50.551Z,9.73
2022-10-25T04:12:53.880Z,9.60
2022-10-25T04:14:56.322Z,9.98
2022-10-25T04:16:57.972Z,9.57
2022-10-25T04:18:59.634Z,9.95
2022-10-25T04:21:01.304Z,8.43
2022-10-25T04:23:02.945Z,8.98
2022-10-25T04:25:04.933Z,8.98
2022-10-25T04:27:06.543Z,9.20
2022-10-25T04:29:08.420Z,9.90
2022-10-25T04:31:10.224Z,9.50
2022-10-25T04:33:11.825Z,10.63
2022-10-25T04:35:13.580Z,11.05
2022-10-25T04:37:15.172Z,10.82
2022-10-25T04:39:16.788Z,11.52
2022-10-25T04:41:19.265Z,12.88
2022-10-25T04:43:20.862Z,12.65
2022-10-25T04:45:22.554Z,13.40
2022-10-25T04:47:24.240Z,13.32
2022-10-25T04:49:25.846Z,13.35
2022-10-25T04:51:27.419Z,12.63
2022-10-25T04:53:29.070Z,13.18
2022-10-25T04:55:31.546Z,12.23
2022-10-25T04:57:33.220Z,12.80
2022-10-25T04:59:34.873Z,12.40
2022-10-25T05:01:36.613Z,13.02
2022-10-25T05:03:38.847Z,13.25
2022-10-25T05:05:40.597Z,15.52
2022-10-25T05:07:42.197Z,13.63
2022-10-25T05:09:46.598Z,14.05
2022-10-25T05:11:49.527Z,15.07
2022-10-25T05:13:51.143Z,15.02
2022-10-25T05:15:56.322Z,13.93
2022-10-25T05:18:01.590Z,15.07
2022-10-25T05:20:03.549Z,15.20
2022-10-25T05:22:05.163Z,14.27
2022-10-25T05:24:06.843Z,13.93
2022-10-25T05:26:11.174Z,14.38
2022-10-25T05:28:12.766Z,15.48
2022-10-25T05:30:14.364Z,14.82
2022-10-25T05:32:16.209Z,14.52
2022-10-25T05:34:17.801Z,16.27
2022-10-25T05:36:19.771Z,16.50
2022-10-25T05:38:21.417Z,17.25
2022-10-25T05:40:23.014Z,15.57
2022-10-25T05:42:24.605Z,17.38
2022-10-25T05:44:26.398Z,14.82
2022-10-25T05:46:28.055Z,14.27
2022-10-25T05:48:29.687Z,16.35
2022-10-25T05:50:31.390Z,15.90
2022-10-25T05:52:32.988Z,15.07
2022-10-25T05:54:34.584Z,14.15
2022-10-25T05:56:36.979Z,13.68
2022-10-25T05:58:38.863Z,13.80
2022-10-25T06:00:40.435Z,14.23
2022-10-25T06:02:42.018Z,12.95
2022-10-25T06:04:43.577Z,13.27
2022-10-25T06:06:47.156Z,14.60
2022-10-25T06:08:48.857Z,14.82
2022-10-25T06:10:50.476Z,14.38
2022-10-25T06:12:52.136Z,14.68
2022-10-25T06:14:53.745Z,14.43
2022-10-25T06:16:55.349Z,13.45
2022-10-25T06:18:57.203Z,15.60
2022-10-25T06:21:03.605Z,16.33
2022-10-25T06:23:08.058Z,15.07
2022-10-25T06:25:12.087Z,15.88
2022-10-25T06:27:13.641Z,16.92
2022-10-25T06:29:15.323Z,16.00
2022-10-25T06:31:18.638Z,14.77
2022-10-25T06:33:22.332Z,14.82
2022-10-25T06:35:24.958Z,15.88
2022-10-25T06:37:26.585Z,14.98
2022-10-25T06:39:28.177Z,15.07
2022-10-25T06:41:31.472Z,15.20
2022-10-25T06:43:35.031Z,13.85
2022-10-25T06:45:36.663Z,13.80
2022-10-25T06:47:38.226Z,14.32
2022-10-25T06:49:39.927Z,14.68
2022-10-25T06:51:41.483Z,14.32
2022-10-25T06:53:43.189Z,15.32
2022-10-25T06:55:47.224Z,14.50
2022-10-25T06:57:48.852Z,14.18
2022-10-25T06:59:50.661Z,14.40
2022-10-25T07:01:52.641Z,14.35
2022-10-25T07:03:55.270Z,14.07
2022-10-25T07:06:01.087Z,17.58
2022-10-25T07:08:02.934Z,15.65
2022-10-25T07:10:04.831Z,16.30
2022-10-25T07:12:12.286Z,17.98
2022-10-25T07:14:14.588Z,19.30
2022-10-25T07:16:18.230Z,23.17
2022-10-25T07:18:19.873Z,20.40
2022-10-25T07:20:21.656Z,20.27
2022-10-25T07:22:23.231Z,18.00
2022-10-25T07:24:24.792Z,19.25
2022-10-25T07:26:31.833Z,18.83
2022-10-25T07:28:33.462Z,18.52
2022-10-25T07:30:35.229Z,18.90
2022-10-25T07:32:41.452Z,16.77
2022-10-25T07:34:44.207Z,14.63
2022-10-25T07:36:45.778Z,14.23
2022-10-25T07:38:47.467Z,13.88
2022-10-25T07:40:55.340Z,16.50
2022-10-25T07:42:56.936Z,16.23
2022-10-25T07:44:58.525Z,15.80
2022-10-25T07:47:00.195Z,15.77
2022-10-25T07:49:01.792Z,18.67
2022-10-25T07:51:14.134Z,16.98
2022-10-25T07:53:15.891Z,15.50
2022-10-25T07:55:17.501Z,16.13
2022-10-25T07:57:19.101Z,15.93
2022-10-25T07:59:22.009Z,16.00
2022-10-25T08:01:25.456Z,18.73
2022-10-25T08:03:27.149Z,14.85
2022-10-25T08:05:28.948Z,15.82
2022-10-25T08:07:30.574Z,15.10
2022-10-25T08:09:38.412Z,15.27
2022-10-25T08:11:40.817Z,15.30
2022-10-25T08:13:42.450Z,14.27
2022-10-25T08:15:51.310Z,16.10
2022-10-25T08:18:03.122Z,14.45
2022-10-25T08:20:05.108Z,15.05
2022-10-25T08:22:06.736Z,16.15
2022-10-25T08:24:08.591Z,14.35
2022-10-25T08:26:10.286Z,12.88
2022-10-25T08:28:12.377Z,12.85
2022-10-25T08:30:14.046Z,16.63
2022-10-25T08:32:15.593Z,18.92
2022-10-25T08:34:17.163Z,17.42
2022-10-25T08:36:18.793Z,17.73
2022-10-25T08:38:20.401Z,16.95
2022-10-25T08:40:25.811Z,16.02
2022-10-25T08:42:55.034Z,15.55
2022-10-25T08:45:11.142Z,15.30
2022-10-25T08:47:20.700Z,15.00
2022-10-25T08:49:29.596Z,15.63
2022-10-25T08:51:37.098Z,14.13
2022-10-25T08:53:43.158Z,11.65
2022-10-25T08:58:13.585Z,11.50
2022-10-25T09:00:23.264Z,9.77
2022-10-25T09:02:45.906Z,11.10
2022-10-25T09:04:47.646Z,10.38
2022-10-25T09:07:01.234Z,10.75
2022-10-25T09:09:33.667Z,12.02
2022-10-25T09:11:45.160Z,9.25
2022-10-25T09:14:09.139Z,10.95
2022-10-25T09:16:20.687Z,10.52
2022-10-25T09:18:36.861Z,10.98
2022-10-25T09:20:46.021Z,11.60
2022-10-25T09:22:58.137Z,10.95
2022-10-25T09:25:21.127Z,11.13
2022-10-25T09:27:32.294Z,11.20
2022-10-25T09:30:15.294Z,10.68
2022-10-25T09:32:29.476Z,12.55
2022-10-25T09:34:35.620Z,12.40
2022-10-25T09:36:43.330Z,11.88
2022-10-25T09:38:52.917Z,12.60
2022-10-25T09:41:05.831Z,12.95
2022-10-25T09:43:14.606Z,11.98
2022-10-25T09:45:19.161Z,13.15
2022-10-25T09:47:48.886Z,14.13
2022-10-25T09:50:24.961Z,13.05
2022-10-25T09:52:40.868Z,12.23
2022-10-25T09:54:47.868Z,12.60
2022-10-25T09:56:49.616Z,12.30
2022-10-25T09:58:51.277Z,13.40
2022-10-25T10:00:54.845Z,12.18
2022-10-25T10:04:58.576Z,12.48
2022-10-25T10:07:07.979Z,12.75
2022-10-25T10:09:12.510Z,11.80
2022-10-25T10:11:16.236Z,11.85
2022-10-25T10:13:17.804Z,12.52
2022-10-25T10:15:26.060Z,12.05
2022-10-25T10:17:30.115Z,13.25
2022-10-25T10:19:31.846Z,11.63
2022-10-25T10:21:34.460Z,13.07
2022-10-25T10:23:43.862Z,12.65
2022-10-25T10:25:45.647Z,12.75
2022-10-25T10:27:49.188Z,12.43
2022-10-25T10:29:53.894Z,12.10
2022-10-25T10:32:00.235Z,11.60
2022-10-25T10:34:02.139Z,11.52
2022-10-25T10:36:27.202Z,12.20
2022-10-25T10:38:29.281Z,12.75
2022-10-25T10:40:31.091Z,11.18
2022-10-25T10:42:32.713Z,11.80
2022-10-25T10:44:34.841Z,10.32
2022-10-25T10:46:36.708Z,9.40
2022-10-25T10:48:45.508Z,9.65
2022-10-25T10:50:51.320Z,9.90
2022-10-25T10:52:59.446Z,9.48
2022-10-25T10:55:02.372Z,9.40
2022-10-25T10:57:05.424Z,9.88
2022-10-25T10:59:24.869Z,9.73
2022-10-25T11:01:35.464Z,9.27
2022-10-25T11:03:53.511Z,8.88
2022-10-25T11:06:02.506Z,9.05
2022-10-25T11:08:07.039Z,9.43
2022-10-25T11:10:23.660Z,8.25
2022-10-25T11:12:25.509Z,8.48
2022-10-25T11:14:27.119Z,8.52
2022-10-25T11:16:32.432Z,8.40
2022-10-25T11:18:56.144Z,8.13
2022-10-25T11:21:26.153Z,7.93
2022-10-25T11:23:43.320Z,7.45
2022-10-25T11:25:52.416Z,8.07
2022-10-25T11:28:12.372Z,7.28
2022-10-25T11:30:19.597Z,8.10
2022-10-25T11:32:55.053Z,7.70
2022-10-25T11:35:06.545Z,7.90
2022-10-25T11:37:21.627Z,8.15
2022-10-25T11:39:38.194Z,8.40
2022-10-25T11:41:48.549Z,7.55
2022-10-25T11:43:50.098Z,7.45
2022-10-25T11:46:18.273Z,6.75
2022-10-25T11:48:25.781Z,6.72
2022-10-25T11:50:41.143Z,6.47
2022-10-25T11:52:56.863Z,6.28
2022-10-25T11:55:18.389Z,6.43
2022-10-25T11:57:37.415Z,7.43
2022-10-25T11:59:45.490Z,7.18
2022-10-25T12:01:53.453Z,7.10
2022-10-25T12:04:53.507Z,8.05
2022-10-25T12:06:58.283Z,7.10
2022-10-25T12:09:21.256Z,7.50
2022-10-25T12:11:30.063Z,7.65
2022-10-25T12:13:42.364Z,7.47
2022-10-25T12:15:47.168Z,7.72
2022-10-25T12:17:50.180Z,8.02
2022-10-25T12:19:54.812Z,7.70
2022-10-25T12:22:01.929Z,7.55
2022-10-25T12:24:05.509Z,7.95
2022-10-25T12:26:12.196Z,7.35
2022-10-25T12:28:37.649Z,6.88
2022-10-25T12:30:40.391Z,6.75
2022-10-25T12:32:44.889Z,6.63
2022-10-25T12:34:51.546Z,5.88
2022-10-25T12:36:56.401Z,6.30
2022-10-25T12:39:03.326Z,6.30
2022-10-25T12:41:09.017Z,4.97
2022-10-25T12:43:31.420Z,5.68
2022-10-25T12:45:39.038Z,5.13
2022-10-25T12:47:40.768Z,5.18
2022-10-25T12:50:23.282Z,5.47
2022-10-25T12:52:40.217Z,5.93
2022-10-25T12:55:02.943Z,5.63
2022-10-25T12:57:14.397Z,5.45
2022-10-25T12:59:42.845Z,4.80
2022-10-25T13:02:21.381Z,5.18
2022-10-25T13:04:33.718Z,5.07
2022-10-25T13:06:38.970Z,5.20
2022-10-25T13:08:41.036Z,5.35
2022-10-25T13:10:47.008Z,5.60
2022-10-25T13:13:03.833Z,5.50
2022-10-25T13:15:06.097Z,5.63
2022-10-25T13:17:16.882Z,5.35
2022-10-25T13:19:35.865Z,6.30
2022-10-25T13:21:54.646Z,4.90
2022-10-25T13:24:00.250Z,4.97
2022-10-25T13:26:06.035Z,6.05
2022-10-25T13:28:16.631Z,4.88
2022-10-25T13:32:24.714Z,5.40
2022-10-25T13:34:31.519Z,5.53
2022-10-25T13:36:56.163Z,5.22
2022-10-25T13:39:05.283Z,5.00
2022-10-25T13:41:19.739Z,5.15
2022-10-25T13:43:21.991Z,5.53
2022-10-25T13:45:33.459Z,5.35
2022-10-25T13:47:42.836Z,5.10
2022-10-25T13:49:47.576Z,4.60
2022-10-25T13:51:49.167Z,5.10
2022-10-25T13:53:54.050Z,5.10
2022-10-25T13:56:22.998Z,4.60
2022-10-25T13:58:31.959Z,5.20
2022-10-25T14:00:40.314Z,4.75
2022-10-25T14:03:09.626Z,5.15
2022-10-25T14:05:11.861Z,5.35
2022-10-25T14:07:45.704Z,4.88
2022-10-25T14:09:51.021Z,4.85
2022-10-25T14:12:01.945Z,4.55
2022-10-25T14:14:23.460Z,5.60
2022-10-25T14:16:29.443Z,4.85
2022-10-25T14:18:34.176Z,5.10
2022-10-25T14:20:36.701Z,5.10
2022-10-25T14:22:52.131Z,4.93
2022-10-25T14:24:54.654Z,5.05
2022-10-25T14:27:01.418Z,5.38
2022-10-25T14:29:14.356Z,4.47
2022-10-25T14:31:22.154Z,5.27
2022-10-25T14:33:33.823Z,5.57
2022-10-25T14:35:47.104Z,5.25
2022-10-25T14:37:48.995Z,5.20
2022-10-25T14:39:53.949Z,4.53
2022-10-25T14:42:00.846Z,5.88
2022-10-25T14:44:03.333Z,6.82
2022-10-25T14:46:14.287Z,6.18
2022-10-25T14:48:15.874Z,6.28
2022-10-25T14:50:23.308Z,6.65
2022-10-25T14:52:26.231Z,7.72
2022-10-25T14:54:34.925Z,8.35
2022-10-25T14:56:42.635Z,7.25
2022-10-25T14:58:44.267Z,6.63
2022-10-25T15:00:58.168Z,7.50
2022-10-25T15:05:03.995Z,6.13
2022-10-25T15:07:06.395Z,6.23
2022-10-25T15:09:41.835Z,5.32
2022-10-25T15:11:39.873Z,6.13
2022-10-25T15:13:43.397Z,6.45
2022-10-25T15:17:52.420Z,6.78
2022-10-25T15:19:59.309Z,7.30
2022-10-25T15:22:10.945Z,6.30
2022-10-25T15:24:24.109Z,6.30
2022-10-25T15:26:26.856Z,5.47
2022-10-25T15:28:48.047Z,6.50
2022-10-25T15:30:49.657Z,9.82
2022-10-25T15:32:51.250Z,15.05
2022-10-25T15:34:54.741Z,10.88
2022-10-25T15:36:56.342Z,9.00
2022-10-25T15:39:11.748Z,9.20
2022-10-25T15:41:18.014Z,7.30
2022-10-25T15:43:19.819Z,6.55
2022-10-25T15:45:21.429Z,7.35
2022-10-25T15:47:33.989Z,7.25
2022-10-25T15:49:35.626Z,7.55
2022-10-25T15:51:39.496Z,7.28
2022-10-25T15:53:41.135Z,8.50
2022-10-25T15:55:42.797Z,9.98
2022-10-25T15:57:44.982Z,6.85
2022-10-25T15:59:46.675Z,7.18
2022-10-25T16:01:50.902Z,6.25
2022-10-25T16:03:52.609Z,7.60
2022-10-25T16:05:54.237Z,12.63
2022-10-25T16:07:55.983Z,10.43
2022-10-25T16:09:57.608Z,8.93
2022-10-25T16:11:59.917Z,9.77
2022-10-25T16:14:01.873Z,8.07
2022-10-25T16:16:11.755Z,8.25
2022-10-25T16:18:18.333Z,10.15
2022-10-25T16:20:28.660Z,10.25
2022-10-25T16:22:30.302Z,7.40
2022-10-25T16:24:31.957Z,7.75
2022-10-25T16:26:36.694Z,7.03
2022-10-25T16:28:40.581Z,7.85
2022-10-25T16:30:43.937Z,6.60
2022-10-25T16:32:46.105Z,8.68
2022-10-25T16:34:47.912Z,6.97
2022-10-25T16:36:50.638Z,7.70
2022-10-25T16:38:52.249Z,8.47
2022-10-25T16:40:53.818Z,7.30
2022-10-25T16:42:55.502Z,8.43
2022-10-25T16:44:57.414Z,8.05
2022-10-25T16:47:00.230Z,7.82
2022-10-25T16:49:02.358Z,7.95
2022-10-25T16:51:04.400Z,7.45
2022-10-25T16:53:10.324Z,7.72
2022-10-25T16:55:12.095Z,8.57
2022-10-25T16:57:14.717Z,7.88
2022-10-25T16:59:16.453Z,7.43
2022-10-25T17:01:34.680Z,7.70
2022-10-25T17:03:36.725Z,9.23
2022-10-25T17:05:39.905Z,7.85
2022-10-25T17:07:45.523Z,7.90
2022-10-25T17:09:47.231Z,7.82
2022-10-25T17:11:48.796Z,7.90
2022-10-25T17:13:50.369Z,7.88
2022-10-25T17:15:52.180Z,6.63
2022-10-25T17:17:53.767Z,8.20
2022-10-25T17:19:55.404Z,7.68
2022-10-25T17:21:57.522Z,11.30
2022-10-25T17:23:59.587Z,11.00
2022-10-25T17:26:02.118Z,7.65
2022-10-25T17:28:04.186Z,6.30
2022-10-25T17:30:07.234Z,7.20
2022-10-25T17:32:08.824Z,7.43
2022-10-25T17:34:10.722Z,8.30
2022-10-25T17:36:15.206Z,7.38
2022-10-25T17:38:17.106Z,9.50
2022-10-25T17:40:18.987Z,8.07
2022-10-25T17:42:20.652Z,9.45
2022-10-25T17:44:22.228Z,8.68
2022-10-25T17:46:27.912Z,7.10
2022-10-25T17:48:29.698Z,5.65
2022-10-25T17:50:32.015Z,6.10
2022-10-25T17:52:33.838Z,6.15
2022-10-25T17:54:37.300Z,6.13
2022-10-25T17:56:38.884Z,6.75
2022-10-25T17:58:45.221Z,5.95
2022-10-25T18:00:46.851Z,5.88
2022-10-25T18:02:50.783Z,5.43
2022-10-25T18:05:08.571Z,7.88
2022-10-25T18:07:15.250Z,5.55
2022-10-25T18:09:17.013Z,9.27
2022-10-25T18:11:22.365Z,9.55
2022-10-25T18:13:25.050Z,6.82
2022-10-25T18:15:26.764Z,8.93
2022-10-25T18:17:28.347Z,8.27
2022-10-25T18:19:29.960Z,9.00
2022-10-25T18:21:32.099Z,6.75
2022-10-25T18:23:34.137Z,7.20
2022-10-25T18:25:36.437Z,6.72
2022-10-25T18:27:38.019Z,6.35
2022-10-25T18:29:40.277Z,6.15
2022-10-25T18:31:41.853Z,6.10
2022-10-25T18:33:43.599Z,6.78
2022-10-25T18:35:45.241Z,7.03
2022-10-25T18:37:48.394Z,5.68
2022-10-25T18:39:50.195Z,6.18
2022-10-25T18:41:52.593Z,5.75
2022-10-25T18:43:54.967Z,5.60
2022-10-25T18:45:59.893Z,6.28
2022-10-25T18:48:01.843Z,5.68
2022-10-25T18:50:03.723Z,6.18
2022-10-25T18:52:06.021Z,5.47
2022-10-25T18:54:11.699Z,5.90
2022-10-25T18:56:17.103Z,6.25
2022-10-25T18:58:21.481Z,5.65
2022-10-25T19:00:27.711Z,6.35
2022-10-25T19:02:31.977Z,5.10
2022-10-25T19:04:35.842Z,5.63
2022-10-25T19:06:37.435Z,5.78
2022-10-25T19:08:39.464Z,5.43
2022-10-25T19:10:42.134Z,5.65
2022-10-25T19:12:43.799Z,5.55
2022-10-25T19:14:45.436Z,6.20
2022-10-25T19:16:47.121Z,5.75
2022-10-25T19:18:48.936Z,5.57
2022-10-25T19:20:50.512Z,5.88
2022-10-25T19:22:53.458Z,5.97
2022-10-25T19:24:55.048Z,5.20
2022-10-25T19:26:57.881Z,5.53
2022-10-25T19:29:00.964Z,5.63
2022-10-25T19:31:10.365Z,4.95
2022-10-25T19:33:11.971Z,5.35
2022-10-25T19:35:13.764Z,6.30
2022-10-25T19:37:15.371Z,5.50
2022-10-25T19:39:16.954Z,5.68
2022-10-25T19:41:22.801Z,4.55
2022-10-25T19:43:24.361Z,5.55
2022-10-25T19:45:26.286Z,5.40
2022-10-25T19:47:28.154Z,5.72
2022-10-25T19:49:29.739Z,6.07
2022-10-25T19:51:31.450Z,5.35
2022-10-25T19:53:33.546Z,5.72
2022-10-25T19:55:35.617Z,6.00
2022-10-25T19:57:37.185Z,5.03
2022-10-25T19:59:38.769Z,5.40
2022-10-25T20:01:40.529Z,6.15
2022-10-25T20:03:45.109Z,4.88
2022-10-25T20:05:46.696Z,5.60
2022-10-25T20:07:48.577Z,6.22
2022-10-25T20:09:50.355Z,5.43
2022-10-25T20:11:51.911Z,5.60
2022-10-25T20:13:55.011Z,5.53
2022-10-25T20:15:56.680Z,5.30
2022-10-25T20:17:58.225Z,5.85
2022-10-25T20:19:59.892Z,6.05
2022-10-25T20:22:01.465Z,5.63
2022-10-25T20:24:08.453Z,5.10
2022-10-25T20:26:15.689Z,6.03
2022-10-25T20:28:17.322Z,5.78
2022-10-25T20:30:18.967Z,5.75
2022-10-25T20:32:21.447Z,6.40
2022-10-25T20:34:23.172Z,5.63
2022-10-25T20:36:25.452Z,5.82
2022-10-25T20:38:27.125Z,5.85
2022-10-25T20:40:28.770Z,5.53
2022-10-25T20:42:30.429Z,5.40
2022-10-25T20:44:32.265Z,5.40
2022-10-25T20:46:34.077Z,5.38
2022-10-25T20:48:35.820Z,6.00
2022-10-25T20:50:37.448Z,5.85
2022-10-25T20:52:47.663Z,6.22
2022-10-25T20:54:49.839Z,5.40
2022-10-25T20:56:51.668Z,5.63
2022-10-25T20:58:53.292Z,5.78
2022-10-25T21:00:57.540Z,6.25
2022-10-25T21:02:59.782Z,6.00
2022-10-25T21:05:01.373Z,5.85
2022-10-25T21:07:03.780Z,6.15
2022-10-25T21:09:05.413Z,5.70
2022-10-25T21:11:09.494Z,6.47
2022-10-25T21:13:11.077Z,5.78
2022-10-25T21:15:12.672Z,6.40
2022-10-25T21:17:14.537Z,6.00
2022-10-25T21:19:16.191Z,5.55
2022-10-25T21:21:19.531Z,6.35
2022-10-25T21:23:21.329Z,5.47
2022-10-25T21:25:22.968Z,5.70
2022-10-25T21:27:24.870Z,5.28
2022-10-25T21:29:26.499Z,5.57
2022-10-25T21:31:28.094Z,6.97
2022-10-25T21:33:29.957Z,6.35
2022-10-25T21:35:32.336Z,6.35
2022-10-25T21:37:33.923Z,4.95
2022-10-25T21:39:35.598Z,6.50
2022-10-25T21:41:37.196Z,5.82
2022-10-25T21:43:45.426Z,6.43
2022-10-25T21:45:47.327Z,6.45
2022-10-25T21:47:49.152Z,6.30
2022-10-25T21:49:51.089Z,6.53
2022-10-25T21:51:52.678Z,6.45
2022-10-25T21:53:55.218Z,6.18
2022-10-25T21:56:14.881Z,6.57
2022-10-25T21:58:16.459Z,5.13
2022-10-25T22:00:21.317Z,6.13
2022-10-25T22:02:23.196Z,5.70
2022-10-25T22:04:26.101Z,7.30
2022-10-25T22:06:27.851Z,6.30
2022-10-25T22:08:29.682Z,6.05
2022-10-25T22:10:31.254Z,6.32
2022-10-25T22:12:32.833Z,5.68
2022-10-25T22:14:34.514Z,5.68
2022-10-25T22:16:36.480Z,6.28
2022-10-25T22:18:38.141Z,5.95
2022-10-25T22:20:39.734Z,6.40
2022-10-25T22:22:41.568Z,5.78
2022-10-25T22:24:43.175Z,6.30
2022-10-25T22:26:45.784Z,7.05
2022-10-25T22:28:51.937Z,6.80
2022-10-25T22:31:02.007Z,6.95
2022-10-25T22:33:03.589Z,6.65
2022-10-25T22:35:05.691Z,7.18
2022-10-25T22:37:07.411Z,7.10
2022-10-25T22:39:09.305Z,6.40
2022-10-25T22:41:16.226Z,6.28
2022-10-25T22:43:17.804Z,5.80
2022-10-25T22:45:19.405Z,5.88
2022-10-25T22:47:21.044Z,6.38
2022-10-25T22:49:22.913Z,4.93
2022-10-25T22:51:26.224Z,4.95
2022-10-25T22:53:28.520Z,5.45
2022-10-25T22:55:30.176Z,6.28
2022-10-25T22:57:31.787Z,6.53
2022-10-25T22:59:33.669Z,5.72
2022-10-25T23:01:36.654Z,5.65
2022-10-25T23:03:42.865Z,5.75
2022-10-25T23:05:44.758Z,5.80
2022-10-25T23:07:46.371Z,5.32
2022-10-25T23:09:47.964Z,6.20
2022-10-25T23:11:50.146Z,5.72
2022-10-25T23:13:52.257Z,5.65
2022-10-25T23:15:53.907Z,5.00
2022-10-25T23:17:55.580Z,4.93
2022-10-25T23:19:57.304Z,5.30
2022-10-25T23:21:58.914Z,4.93
2022-10-25T23:24:01.029Z,4.85
2022-10-25T23:26:02.769Z,5.30
2022-10-25T23:28:04.539Z,5.05
2022-10-25T23:30:09.850Z,5.30
2022-10-25T23:32:14.066Z,4.90
2022-10-25T23:34:15.704Z,5.60
2022-10-25T23:36:19.677Z,4.63
2022-10-25T23:38:21.338Z,5.05
2022-10-25T23:40:23.010Z,4.82
2022-10-25T23:42:24.688Z,5.07
2022-10-25T23:44:26.315Z,5.43
2022-10-25T23:46:28.167Z,5.45
2022-10-25T23:48:30.937Z,5.57
2022-10-25T23:50:32.548Z,4.40
2022-10-25T23:52:34.348Z,5.05
2022-10-25T23:54:35.971Z,5.47
2022-10-25T23:56:37.644Z,4.93
2022-10-25T23:58:39.512Z,5.88
